Time;durP1;ratioP1;P1;durP2;ratioP2;P2;SDS_P1;SDS_P2;PMS_P1;PMS_P2;Temp;Humidity;BMP_temperature;BMP_pressure;BME280_temperature;BME280_humidity;BME280_pressure;Samples;Min_cycle;Max_cycle;Signal;HPM_P1;HPM_P2
2021/09/10 00:02:24;;;;;;;4.18;3.88;;;18.50;99.90;;;;;;5075713;28;20220;-77
2021/09/10 00:04:51;;;;;;;4.13;3.83;;;18.50;99.90;;;;;;5075786;28;20230;-79
2021/09/10 00:07:19;;;;;;;3.78;3.42;;;18.50;99.90;;;;;;5075562;28;20236;-78
2021/09/10 00:09:46;;;;;;;4.30;3.90;;;18.50;99.90;;;;;;5078205;28;20225;-77
2021/09/10 00:12:13;;;;;;;4.05;3.75;;;18.40;99.90;;;;;;5080779;28;20240;-77
2021/09/10 00:14:40;;;;;;;4.68;4.22;;;18.40;99.90;;;;;;5078002;28;20224;-78
2021/09/10 00:17:07;;;;;;;3.97;3.65;;;18.40;99.90;;;;;;5090096;28;20224;-77
2021/09/10 00:19:35;;;;;;;3.70;3.40;;;18.40;99.90;;;;;;5080941;28;20882;-77
2021/09/10 00:22:02;;;;;;;4.07;3.65;;;18.40;99.90;;;;;;5079454;28;20244;-78
2021/09/10 00:24:29;;;;;;;4.75;4.10;;;18.50;99.90;;;;;;5079235;28;20298;-77
2021/09/10 00:26:56;;;;;;;4.28;3.88;;;18.50;99.90;;;;;;5082792;28;20606;-78
2021/09/10 00:29:23;;;;;;;4.70;4.00;;;18.50;99.90;;;;;;5083865;28;20221;-77
2021/09/10 00:31:51;;;;;;;4.38;3.97;;;18.30;99.90;;;;;;5082269;28;20217;-77
2021/09/10 00:34:18;;;;;;;4.13;3.83;;;18.30;99.90;;;;;;5079434;28;20230;-77
2021/09/10 00:36:46;;;;;;;4.07;3.67;;;18.30;99.90;;;;;;5069571;28;20222;-79
2021/09/10 00:39:13;;;;;;;3.95;3.65;;;18.30;99.90;;;;;;5076106;28;20610;-78
2021/09/10 00:41:40;;;;;;;3.55;3.25;;;18.30;99.90;;;;;;5077924;28;20229;-78
2021/09/10 00:44:08;;;;;;;3.53;3.20;;;18.30;99.90;;;;;;5079784;28;20235;-78
2021/09/10 00:46:35;;;;;;;4.40;3.70;;;18.30;99.90;;;;;;5077920;28;20229;-78
2021/09/10 00:49:02;;;;;;;3.78;3.47;;;18.40;99.90;;;;;;5080395;28;20225;-78
2021/09/10 00:51:30;;;;;;;4.13;3.80;;;18.40;99.90;;;;;;5078875;28;20229;-77
2021/09/10 00:53:58;;;;;;;4.20;3.80;;;18.40;99.90;;;;;;5077596;28;20221;-77
2021/09/10 00:56:26;;;;;;;4.28;3.88;;;18.40;99.90;;;;;;5073098;28;20792;-77
2021/09/10 00:58:56;;;;;;;4.05;3.65;;;18.40;99.90;;;;;;5079768;28;20217;-80
2021/09/10 01:01:24;;;;;;;3.90;3.40;;;18.40;99.90;;;;;;5081383;28;20229;-78
2021/09/10 01:03:51;;;;;;;3.88;3.58;;;18.40;99.90;;;;;;5084316;28;20221;-78
2021/09/10 01:06:19;;;;;;;4.07;3.78;;;18.40;99.90;;;;;;5080520;28;20225;-78
2021/09/10 01:08:47;;;;;;;4.63;3.80;;;18.30;99.90;;;;;;5086260;28;20695;-78
2021/09/10 01:11:16;;;;;;;4.13;3.83;;;18.30;99.90;;;;;;5092637;28;20244;-77
2021/09/10 01:13:45;;;;;;;4.10;3.78;;;18.30;99.90;;;;;;5078171;28;20234;-77
2021/09/10 01:16:13;;;;;;;4.10;3.70;;;18.30;99.90;;;;;;5083880;28;20226;-77
2021/09/10 01:18:40;;;;;;;3.67;3.38;;;18.30;99.90;;;;;;5085275;28;20976;-77
2021/09/10 01:21:07;;;;;;;4.05;3.75;;;18.30;99.90;;;;;;5085169;28;20221;-77
2021/09/10 01:23:34;;;;;;;3.40;3.10;;;18.30;99.90;;;;;;5080687;28;20222;-79
2021/09/10 01:26:02;;;;;;;4.82;3.90;;;18.30;99.90;;;;;;5079933;28;20226;-77
2021/09/10 01:28:29;;;;;;;3.95;3.55;;;18.30;99.90;;;;;;5082769;28;20703;-77
2021/09/10 01:30:57;;;;;;;3.72;3.42;;;18.20;99.90;;;;;;5082631;28;20237;-79
2021/09/10 01:33:24;;;;;;;4.10;3.72;;;18.20;99.90;;;;;;5082989;28;20222;-77
2021/09/10 01:35:51;;;;;;;3.88;3.53;;;18.20;99.90;;;;;;5086676;28;20241;-78
2021/09/10 01:38:18;;;;;;;3.65;3.35;;;18.20;99.90;;;;;;5078274;28;20221;-78
2021/09/10 01:40:45;;;;;;;3.83;3.53;;;18.20;99.90;;;;;;5082365;28;20275;-77
2021/09/10 01:43:15;;;;;;;3.72;3.42;;;18.20;99.90;;;;;;5081301;28;20240;-77
2021/09/10 01:45:42;;;;;;;3.70;3.40;;;18.20;99.90;;;;;;5082490;28;20642;-77
2021/09/10 01:48:09;;;;;;;3.45;3.15;;;18.10;99.90;;;;;;5082297;28;20233;-77
2021/09/10 01:50:36;;;;;;;4.50;3.50;;;18.20;99.90;;;;;;5078799;28;20225;-78
2021/09/10 01:53:03;;;;;;;3.42;3.08;;;18.10;99.90;;;;;;5079313;28;20279;-78
2021/09/10 01:55:32;;;;;;;3.85;3.55;;;18.10;99.90;;;;;;5077358;28;20935;-77
2021/09/10 01:58:00;;;;;;;4.07;3.60;;;18.10;99.90;;;;;;5077629;28;20301;-78
2021/09/10 02:00:28;;;;;;;3.40;3.10;;;18.10;99.90;;;;;;5077309;28;20308;-77
2021/09/10 02:02:55;;;;;;;3.72;3.42;;;18.10;99.90;;;;;;5087072;28;20631;-79
2021/09/10 02:05:22;;;;;;;3.63;3.17;;;18.00;99.90;;;;;;5087361;28;20232;-78
2021/09/10 02:07:49;;;;;;;3.80;3.50;;;18.00;99.90;;;;;;5079828;28;20721;-77
2021/09/10 02:10:18;;;;;;;3.88;3.58;;;18.00;99.90;;;;;;5081297;28;20220;-77
2021/09/10 02:12:45;;;;;;;3.55;3.10;;;18.00;99.90;;;;;;5084563;28;20575;-77
2021/09/10 02:15:12;;;;;;;3.60;3.30;;;18.00;99.90;;;;;;5079318;28;20703;-77
2021/09/10 02:17:41;;;;;;;3.75;3.45;;;17.90;99.90;;;;;;5080263;28;20244;-78
2021/09/10 02:20:10;;;;;;;4.90;3.30;;;17.90;99.90;;;;;;5081293;28;20229;-78
2021/09/10 02:22:37;;;;;;;3.90;3.53;;;17.90;99.90;;;;;;5080612;28;20252;-78
2021/09/10 02:25:05;;;;;;;4.50;3.70;;;17.90;99.90;;;;;;5081015;28;20233;-78
2021/09/10 02:27:32;;;;;;;3.28;2.97;;;17.90;99.90;;;;;;5080334;28;20228;-77
2021/09/10 02:29:59;;;;;;;3.85;3.55;;;17.90;99.90;;;;;;5081025;28;20229;-78
2021/09/10 02:32:26;;;;;;;3.33;3.03;;;17.90;99.90;;;;;;5080659;28;20722;-79
2021/09/10 02:34:55;;;;;;;3.92;3.53;;;17.90;99.90;;;;;;5081274;28;20755;-77
2021/09/10 02:37:22;;;;;;;3.70;3.40;;;17.80;99.90;;;;;;5074074;28;20218;-78
2021/09/10 02:39:50;;;;;;;3.97;3.67;;;17.80;99.90;;;;;;5081653;28;20217;-79
2021/09/10 02:42:17;;;;;;;4.20;3.90;;;17.80;99.90;;;;;;5073892;28;20232;-77
2021/09/10 02:44:44;;;;;;;3.95;3.65;;;17.80;99.90;;;;;;5082037;28;20225;-77
2021/09/10 02:47:11;;;;;;;4.22;3.70;;;17.70;99.90;;;;;;5079688;28;20316;-77
2021/09/10 02:49:38;;;;;;;4.68;4.28;;;17.70;99.90;;;;;;5080085;28;20271;-78
2021/09/10 02:52:07;;;;;;;3.75;3.45;;;17.80;99.90;;;;;;5082479;28;20220;-76
2021/09/10 02:54:34;;;;;;;4.38;3.70;;;17.70;99.90;;;;;;5078344;28;20229;-77
2021/09/10 02:57:01;;;;;;;4.15;3.83;;;17.70;99.90;;;;;;5085605;28;20229;-79
2021/09/10 02:59:28;;;;;;;5.43;4.05;;;17.60;99.90;;;;;;5082529;28;20570;-78
2021/09/10 03:01:55;;;;;;;3.47;3.17;;;17.60;99.90;;;;;;5078440;28;20213;-77
2021/09/10 03:04:22;;;;;;;4.10;3.70;;;17.50;99.90;;;;;;5079479;28;20225;-77
2021/09/10 03:06:49;;;;;;;4.72;4.25;;;17.50;99.90;;;;;;5078396;28;20217;-77
2021/09/10 03:09:18;;;;;;;4.20;3.88;;;17.50;99.90;;;;;;5077035;28;20226;-78
2021/09/10 03:11:45;;;;;;;4.78;4.38;;;17.50;99.90;;;;;;5081924;28;20270;-78
2021/09/10 03:14:12;;;;;;;4.20;3.80;;;17.50;99.90;;;;;;5078542;28;20617;-78
2021/09/10 03:16:39;;;;;;;3.80;3.50;;;17.40;99.90;;;;;;5078715;28;20644;-77
2021/09/10 03:19:06;;;;;;;4.43;4.03;;;17.40;99.90;;;;;;5077971;28;20229;-78
2021/09/10 03:21:33;;;;;;;4.18;3.78;;;17.40;99.90;;;;;;5080055;28;20225;-77
2021/09/10 03:24:00;;;;;;;4.13;3.83;;;17.40;99.90;;;;;;5076436;28;20226;-78
2021/09/10 03:26:28;;;;;;;4.18;3.85;;;17.30;99.90;;;;;;5069958;28;20237;-77
2021/09/10 03:28:55;;;;;;;4.30;3.90;;;17.40;99.90;;;;;;5077999;28;20225;-77
2021/09/10 03:31:22;;;;;;;4.25;3.85;;;17.30;99.90;;;;;;5080161;28;20217;-77
2021/09/10 03:33:49;;;;;;;4.00;3.70;;;17.30;99.90;;;;;;5076344;28;20222;-77
2021/09/10 03:36:17;;;;;;;3.58;3.28;;;17.30;99.90;;;;;;5074694;28;20217;-79
2021/09/10 03:38:44;;;;;;;3.97;3.67;;;17.30;99.90;;;;;;5076158;28;20224;-77
2021/09/10 03:41:11;;;;;;;4.07;3.67;;;17.30;99.90;;;;;;5076343;28;20881;-78
2021/09/10 03:43:42;;;;;;;4.00;3.70;;;17.30;99.90;;;;;;5074569;28;20232;-77
2021/09/10 03:46:09;;;;;;;4.70;4.20;;;17.30;99.90;;;;;;5079511;28;20794;-77
2021/09/10 03:48:36;;;;;;;3.90;3.60;;;17.20;99.90;;;;;;5078376;28;20221;-77
2021/09/10 03:51:03;;;;;;;3.90;3.60;;;17.20;99.90;;;;;;5093030;28;20207;-80
2021/09/10 03:53:30;;;;;;;4.18;3.88;;;17.20;99.90;;;;;;5073997;28;20238;-78
2021/09/10 03:55:57;;;;;;;3.97;3.67;;;17.10;99.90;;;;;;5075951;28;20598;-77
2021/09/10 03:58:24;;;;;;;4.22;3.90;;;17.10;99.90;;;;;;5072378;28;20221;-79
2021/09/10 04:00:53;;;;;;;4.28;3.90;;;17.10;99.90;;;;;;5077243;28;20226;-77
2021/09/10 04:03:20;;;;;;;4.32;3.88;;;17.10;99.90;;;;;;5076576;28;20233;-77
2021/09/10 04:05:48;;;;;;;4.88;4.20;;;17.10;99.90;;;;;;5081103;28;20221;-78
2021/09/10 04:08:15;;;;;;;4.72;3.72;;;17.00;99.90;;;;;;5071896;28;20292;-78
2021/09/10 04:10:43;;;;;;;4.32;3.92;;;17.00;99.90;;;;;;5074133;28;20218;-78
2021/09/10 04:13:10;;;;;;;4.00;3.70;;;17.00;99.90;;;;;;5076504;28;20249;-78
2021/09/10 04:15:37;;;;;;;4.72;4.32;;;17.00;99.90;;;;;;5078281;28;20217;-77
2021/09/10 04:18:05;;;;;;;4.40;4.00;;;16.90;99.90;;;;;;5082076;28;20233;-77
2021/09/10 04:20:34;;;;;;;4.25;3.85;;;16.90;99.90;;;;;;5074469;28;20691;-77
2021/09/10 04:23:01;;;;;;;4.30;3.90;;;16.90;99.90;;;;;;5080530;28;20229;-77
2021/09/10 04:25:28;;;;;;;3.83;3.53;;;16.80;99.90;;;;;;5076680;28;20233;-77
2021/09/10 04:27:56;;;;;;;4.13;3.75;;;16.90;99.90;;;;;;5074372;28;20233;-78
2021/09/10 04:30:23;;;;;;;4.22;3.92;;;16.80;99.90;;;;;;5072844;28;20225;-77
2021/09/10 04:32:50;;;;;;;4.20;3.80;;;16.80;99.90;;;;;;5089794;28;20223;-78
2021/09/10 04:35:18;;;;;;;4.50;4.10;;;16.80;99.90;;;;;;5081436;28;20695;-80
2021/09/10 04:37:45;;;;;;;4.40;4.00;;;16.80;99.90;;;;;;5079588;28;20225;-77
2021/09/10 04:40:13;;;;;;;4.57;3.97;;;16.80;99.90;;;;;;5081501;28;20783;-78
2021/09/10 04:42:40;;;;;;;4.97;3.78;;;16.80;99.90;;;;;;5081479;28;20594;-77
2021/09/10 04:45:09;;;;;;;4.50;4.15;;;16.80;99.90;;;;;;5092374;28;20705;-77
2021/09/10 04:47:36;;;;;;;5.30;4.30;;;16.80;99.90;;;;;;5081593;28;20225;-78
2021/09/10 04:50:03;;;;;;;4.68;4.13;;;16.80;99.90;;;;;;5083445;28;20224;-77
2021/09/10 04:52:32;;;;;;;4.13;3.70;;;16.80;99.90;;;;;;5081687;28;20221;-76
2021/09/10 04:54:59;;;;;;;4.35;3.95;;;16.80;99.90;;;;;;5079231;28;20718;-77
2021/09/10 04:57:26;;;;;;;4.43;3.92;;;16.80;99.90;;;;;;5075663;28;20214;-77
2021/09/10 04:59:53;;;;;;;6.97;4.50;;;16.80;99.90;;;;;;5082364;28;20232;-77
2021/09/10 05:02:20;;;;;;;5.15;4.32;;;16.80;99.90;;;;;;5073667;28;20750;-78
2021/09/10 05:04:47;;;;;;;4.55;4.15;;;16.80;99.90;;;;;;5076793;28;21004;-78
2021/09/10 05:07:15;;;;;;;5.10;3.83;;;16.80;99.90;;;;;;5076344;28;20257;-77
2021/09/10 05:09:43;;;;;;;4.10;3.80;;;16.80;99.90;;;;;;5077838;28;20703;-77
2021/09/10 05:12:10;;;;;;;4.22;3.88;;;16.80;99.90;;;;;;5076870;28;20232;-78
2021/09/10 05:14:38;;;;;;;4.30;3.90;;;16.80;99.90;;;;;;5079571;28;20224;-79
2021/09/10 05:17:06;;;;;;;4.47;4.07;;;16.80;99.90;;;;;;5081937;28;20222;-77
2021/09/10 05:19:33;;;;;;;5.00;3.90;;;16.80;99.90;;;;;;5078546;28;20296;-77
2021/09/10 05:22:00;;;;;;;4.68;4.03;;;16.80;99.90;;;;;;5081056;28;20287;-77
2021/09/10 05:24:27;;;;;;;4.32;3.92;;;16.80;99.90;;;;;;5082874;28;20233;-78
2021/09/10 05:26:55;;;;;;;4.90;3.80;;;17.00;99.90;;;;;;5078553;28;20217;-78
2021/09/10 05:29:22;;;;;;;4.00;3.67;;;17.20;99.90;;;;;;5070585;28;20240;-77
2021/09/10 05:31:49;;;;;;;5.43;4.50;;;17.30;99.90;;;;;;5082787;28;20216;-77
2021/09/10 05:34:17;;;;;;;4.32;3.92;;;17.60;99.90;;;;;;5081606;28;20221;-79
2021/09/10 05:36:44;;;;;;;4.70;4.30;;;17.80;99.90;;;;;;5080194;28;20233;-77
2021/09/10 05:39:11;;;;;;;5.13;4.60;;;17.90;99.90;;;;;;5077612;28;20225;-77
2021/09/10 05:41:38;;;;;;;5.53;3.92;;;18.20;99.90;;;;;;5075057;28;20229;-77
2021/09/10 05:44:06;;;;;;;4.10;3.80;;;18.30;99.90;;;;;;5069435;28;20235;-78
2021/09/10 05:46:33;;;;;;;4.13;3.65;;;18.60;99.90;;;;;;5071436;28;20249;-77
2021/09/10 05:49:02;;;;;;;4.95;4.18;;;18.70;99.90;;;;;;5063960;28;20245;-77
2021/09/10 05:51:29;;;;;;;5.68;4.47;;;19.00;99.90;;;;;;5068412;28;20233;-77
2021/09/10 05:53:56;;;;;;;4.57;4.18;;;19.10;99.90;;;;;;5064380;28;21296;-77
2021/09/10 05:56:23;;;;;;;4.55;4.15;;;19.30;99.90;;;;;;5067372;28;20225;-76
2021/09/10 05:58:50;;;;;;;6.47;5.03;;;19.50;99.90;;;;;;5072142;28;20225;-78
2021/09/10 06:01:19;;;;;;;5.85;4.80;;;19.60;99.90;;;;;;5069882;28;20714;-79
2021/09/10 06:03:46;;;;;;;5.65;5.15;;;19.70;99.90;;;;;;5069967;28;20229;-78
2021/09/10 06:06:13;;;;;;;5.63;5.10;;;19.80;99.90;;;;;;5073562;28;20704;-76
2021/09/10 06:08:40;;;;;;;4.95;4.53;;;20.00;99.90;;;;;;5070374;28;20872;-78
2021/09/10 06:11:07;;;;;;;5.53;4.75;;;20.10;99.90;;;;;;5074684;28;20217;-77
2021/09/10 06:13:34;;;;;;;5.57;5.03;;;20.20;99.90;;;;;;5072449;28;21010;-78
2021/09/10 06:16:01;;;;;;;5.57;5.03;;;20.20;99.90;;;;;;5070010;28;20233;-77
2021/09/10 06:18:30;;;;;;;7.90;5.30;;;20.30;99.90;;;;;;5071747;28;20221;-77
2021/09/10 06:20:57;;;;;;;5.13;4.63;;;20.50;99.90;;;;;;5073653;28;20229;-79
2021/09/10 06:23:24;;;;;;;8.30;5.32;;;20.60;99.90;;;;;;5073731;28;20697;-77
2021/09/10 06:25:51;;;;;;;5.63;4.93;;;20.70;99.90;;;;;;5068530;28;20225;-77
2021/09/10 06:28:18;;;;;;;6.65;5.47;;;20.80;99.90;;;;;;5066172;28;20234;-77
2021/09/10 06:30:46;;;;;;;6.18;5.57;;;20.90;99.90;;;;;;5073094;28;20735;-78
2021/09/10 06:33:13;;;;;;;5.95;5.45;;;21.00;99.90;;;;;;5066323;28;20237;-78
2021/09/10 06:35:41;;;;;;;5.55;5.05;;;21.00;99.90;;;;;;5065720;28;20218;-79
2021/09/10 06:38:08;;;;;;;5.97;5.38;;;21.10;99.90;;;;;;5071620;28;20322;-78
2021/09/10 06:40:35;;;;;;;5.35;4.85;;;21.40;99.90;;;;;;5069931;28;20255;-77
2021/09/10 06:43:02;;;;;;;6.20;5.68;;;21.50;99.90;;;;;;5070545;28;20684;-78
2021/09/10 06:45:29;;;;;;;5.95;4.95;;;21.60;99.90;;;;;;5068795;28;20688;-79
2021/09/10 06:47:56;;;;;;;5.65;5.15;;;21.80;99.90;;;;;;5070835;28;23118;-79
2021/09/10 06:50:23;;;;;;;4.78;4.38;;;21.90;99.90;;;;;;5075306;28;20220;-79
2021/09/10 06:52:52;;;;;;;4.95;4.50;;;22.00;99.90;;;;;;5072623;28;20241;-78
2021/09/10 06:55:19;;;;;;;8.25;5.30;;;22.20;99.90;;;;;;5070689;28;20233;-78
2021/09/10 06:57:46;;;;;;;6.55;5.95;;;22.30;99.90;;;;;;5069555;28;20225;-78
2021/09/10 07:00:15;;;;;;;5.93;5.30;;;22.10;99.90;;;;;;5070765;28;20232;-78
2021/09/10 07:02:46;;;;;;;9.90;5.70;;;22.20;99.90;;;;;;5069803;28;20313;-78
2021/09/10 07:05:13;;;;;;;6.05;5.45;;;22.10;99.90;;;;;;5057075;28;20231;-78
2021/09/10 07:07:40;;;;;;;6.43;5.82;;;22.30;99.90;;;;;;5071964;28;20217;-76
2021/09/10 07:10:09;;;;;;;5.97;5.47;;;22.40;99.90;;;;;;5060763;28;20233;-77
2021/09/10 07:12:37;;;;;;;6.40;5.80;;;22.50;99.90;;;;;;5074686;28;20229;-78
2021/09/10 07:15:05;;;;;;;6.25;5.70;;;22.50;99.90;;;;;;5068601;28;20240;-78
2021/09/10 07:17:32;;;;;;;5.75;5.25;;;22.50;99.90;;;;;;5071809;28;20225;-79
2021/09/10 07:20:00;;;;;;;6.35;5.72;;;22.70;99.90;;;;;;5049568;28;20696;-78
2021/09/10 07:22:27;;;;;;;6.30;5.40;;;22.70;99.90;;;;;;5072508;28;20244;-78
2021/09/10 07:24:54;;;;;;;6.68;6.07;;;22.80;99.90;;;;;;5077249;28;20233;-78
2021/09/10 07:27:22;;;;;;;7.70;6.03;;;22.90;99.90;;;;;;5077913;28;20719;-78
2021/09/10 07:29:49;;;;;;;6.10;5.60;;;22.90;99.90;;;;;;5074844;28;20375;-80
2021/09/10 07:32:17;;;;;;;6.95;6.20;;;23.00;99.90;;;;;;5069350;28;20233;-78
2021/09/10 07:34:44;;;;;;;7.85;5.93;;;23.10;99.90;;;;;;5068330;28;20244;-78
2021/09/10 07:37:13;;;;;;;6.50;5.55;;;23.20;99.90;;;;;;5069363;28;20227;-78
2021/09/10 07:39:40;;;;;;;6.93;5.80;;;23.30;99.90;;;;;;5071092;28;20217;-77
2021/09/10 07:42:07;;;;;;;8.27;6.53;;;23.40;99.90;;;;;;5072028;28;20228;-78
2021/09/10 07:44:36;;;;;;;7.07;6.20;;;23.50;99.90;;;;;;5072178;28;20283;-78
2021/09/10 07:47:09;;;;;;;10.55;6.43;;;23.60;99.90;;;;;;5076793;28;20575;-78
2021/09/10 07:49:48;;;;;;;8.45;6.60;;;23.40;99.90;;;;;;4965395;28;20656;-77
2021/09/10 07:52:20;;;;;;;6.45;5.85;;;23.50;99.90;;;;;;5021978;28;20216;-78
2021/09/10 07:54:47;;;;;;;6.75;6.05;;;23.40;99.90;;;;;;5056037;28;20387;-79
2021/09/10 07:57:14;;;;;;;6.28;5.68;;;23.50;99.90;;;;;;5063952;28;20228;-78
2021/09/10 07:59:43;;;;;;;5.90;5.40;;;23.60;99.90;;;;;;5076028;28;20277;-78
2021/09/10 08:02:10;;;;;;;6.85;6.15;;;23.80;99.90;;;;;;5055503;28;20237;-78
2021/09/10 08:04:37;;;;;;;7.57;5.63;;;23.80;99.90;;;;;;5073932;28;20229;-78
2021/09/10 08:07:04;;;;;;;6.20;5.60;;;24.10;99.90;;;;;;5077184;28;20560;-79
2021/09/10 08:09:31;;;;;;;7.03;5.90;;;24.20;99.90;;;;;;5085681;28;20222;-78
2021/09/10 08:11:58;;;;;;;6.28;5.68;;;24.20;99.90;;;;;;5078802;28;20233;-78
2021/09/10 08:14:25;;;;;;;6.05;5.40;;;24.00;99.90;;;;;;5075653;28;20295;-78
2021/09/10 08:16:54;;;;;;;6.35;5.60;;;24.10;99.90;;;;;;5077496;28;20264;-78
2021/09/10 08:19:21;;;;;;;7.93;6.28;;;24.10;99.90;;;;;;5068614;28;20234;-78
2021/09/10 08:21:48;;;;;;;10.15;6.38;;;24.40;99.90;;;;;;5075166;28;20217;-79
2021/09/10 08:24:15;;;;;;;7.65;5.85;;;24.40;99.90;;;;;;5072862;28;20229;-78
2021/09/10 08:26:42;;;;;;;6.90;6.20;;;24.40;99.90;;;;;;5074592;28;20228;-78
2021/09/10 08:29:09;;;;;;;5.85;5.03;;;24.40;99.90;;;;;;5068925;28;20232;-79
2021/09/10 08:31:36;;;;;;;5.88;5.20;;;24.40;99.90;;;;;;5078344;28;20229;-78
2021/09/10 08:34:05;;;;;;;6.18;5.50;;;24.40;99.90;;;;;;5071154;28;20233;-79
2021/09/10 08:36:33;;;;;;;8.52;5.47;;;24.10;99.90;;;;;;5074055;28;20221;-78
2021/09/10 08:39:00;;;;;;;7.63;5.75;;;23.90;99.90;;;;;;5071228;28;20830;-78
2021/09/10 08:41:28;;;;;;;6.63;5.85;;;23.80;99.90;;;;;;5071182;28;20230;-79
2021/09/10 08:43:58;;;;;;;7.18;6.13;;;24.10;99.90;;;;;;5072404;28;20232;-78
2021/09/10 08:46:25;;;;;;;6.38;5.45;;;24.50;99.90;;;;;;5069833;28;20221;-79
2021/09/10 08:48:53;;;;;;;7.38;5.60;;;24.60;99.90;;;;;;5072141;28;20781;-78
2021/09/10 08:51:21;;;;;;;6.68;6.03;;;24.60;99.90;;;;;;5070522;28;20270;-78
2021/09/10 08:53:49;;;;;;;9.50;5.93;;;24.60;99.90;;;;;;5075001;28;20230;-79
2021/09/10 08:56:16;;;;;;;6.78;6.07;;;24.60;99.90;;;;;;5069584;28;20312;-79
2021/09/10 08:58:43;;;;;;;6.80;5.68;;;24.70;99.90;;;;;;5070110;28;20232;-77
2021/09/10 09:01:10;;;;;;;6.30;5.70;;;24.60;99.90;;;;;;5067575;28;20221;-78
2021/09/10 09:03:37;;;;;;;8.43;6.10;;;24.50;99.90;;;;;;5072919;28;20218;-78
2021/09/10 09:06:04;;;;;;;5.90;5.30;;;24.50;99.90;;;;;;5075745;28;20226;-79
2021/09/10 09:08:33;;;;;;;6.38;5.78;;;24.60;99.90;;;;;;5073809;28;20290;-78
2021/09/10 09:11:02;;;;;;;6.72;5.82;;;24.80;99.90;;;;;;5078226;28;20378;-81
2021/09/10 09:13:32;;;;;;;7.88;6.47;;;24.90;99.90;;;;;;5068891;28;20241;-79
2021/09/10 09:16:17;;;;;;;6.45;5.85;;;24.90;99.90;;;;;;5075612;28;20233;-78
2021/09/10 09:18:45;;;;;;;5.85;5.25;;;24.90;99.90;;;;;;5078646;28;20344;-79
2021/09/10 09:21:13;;;;;;;6.45;5.82;;;25.00;99.90;;;;;;5080079;28;20225;-79
2021/09/10 09:23:42;;;;;;;5.70;5.18;;;25.00;99.90;;;;;;5076144;28;20572;-78
2021/09/10 09:26:18;;;;;;;5.80;5.30;;;25.20;99.90;;;;;;5077502;28;20253;-79
2021/09/10 09:28:46;;;;;;;6.30;5.70;;;25.30;99.90;;;;;;5076512;28;20674;-79
2021/09/10 09:31:14;;;;;;;7.65;6.20;;;25.20;99.90;;;;;;5076851;28;20269;-79
2021/09/10 09:33:44;;;;;;;6.72;6.10;;;25.50;99.90;;;;;;5068036;28;20958;-77
2021/09/10 09:36:12;;;;;;;6.55;5.82;;;25.40;99.90;;;;;;5068674;28;20336;-78
2021/09/10 09:38:42;;;;;;;8.27;5.85;;;25.40;99.90;;;;;;5065877;28;20229;-79
2021/09/10 09:41:11;;;;;;;6.40;5.80;;;25.20;99.90;;;;;;5067230;28;20710;-77
2021/09/10 09:43:40;;;;;;;6.82;5.55;;;25.20;99.90;;;;;;5070082;28;20671;-79
2021/09/10 09:46:09;;;;;;;7.20;6.22;;;25.40;99.90;;;;;;5071007;28;20224;-76
2021/09/10 09:48:38;;;;;;;6.13;5.53;;;25.50;99.90;;;;;;5071510;28;22259;-77
2021/09/10 09:51:06;;;;;;;6.45;5.85;;;25.50;99.90;;;;;;5066462;28;20336;-77
2021/09/10 09:53:35;;;;;;;8.10;5.93;;;25.40;99.90;;;;;;5068216;28;20225;-78
2021/09/10 09:56:07;;;;;;;7.03;5.85;;;25.50;99.90;;;;;;5068859;28;20312;-78
2021/09/10 09:58:35;;;;;;;6.07;5.47;;;25.50;99.90;;;;;;5069806;28;20271;-78
2021/09/10 10:01:02;;;;;;;6.13;5.10;;;25.70;99.90;;;;;;5063401;28;20233;-78
2021/09/10 10:03:30;;;;;;;5.70;5.20;;;26.10;99.90;;;;;;5068122;28;20237;-77
2021/09/10 10:06:13;;;;;;;7.10;5.60;;;26.30;99.90;;;;;;5071651;28;20289;-77
2021/09/10 10:08:46;;;;;;;6.20;5.55;;;26.40;99.90;;;;;;5066747;28;20224;-78
2021/09/10 10:11:18;;;;;;;5.88;5.38;;;26.60;99.90;;;;;;5070581;28;20222;-78
2021/09/10 10:13:45;;;;;;;6.50;5.80;;;26.90;99.90;;;;;;5066880;28;20244;-77
2021/09/10 10:16:38;;;;;;;5.75;5.25;;;27.00;99.90;;;;;;5070314;28;20344;-78
2021/09/10 10:19:06;;;;;;;5.72;5.22;;;26.90;99.90;;;;;;5058530;28;20706;-78
2021/09/10 10:21:51;;;;;;;7.13;5.22;;;26.60;99.90;;;;;;5065620;28;20221;-77
2021/09/10 10:24:37;;;;;;;7.25;6.53;;;26.40;99.90;;;;;;5060894;28;20245;-78
2021/09/10 10:27:30;;;;;;;5.78;5.20;;;26.20;99.90;;;;;;5063986;28;20218;-78
2021/09/10 10:29:58;;;;;;;7.55;5.78;;;26.60;99.90;;;;;;5066242;28;20225;-77
2021/09/10 10:32:34;;;;;;;7.55;6.00;;;26.90;99.90;;;;;;5062834;28;20218;-78
2021/09/10 10:35:25;;;;;;;5.95;5.40;;;26.90;99.90;;;;;;5069450;28;20236;-76
2021/09/10 10:37:55;;;;;;;6.18;5.57;;;27.00;99.90;;;;;;5062822;28;20214;-77
2021/09/10 10:40:31;;;;;;;6.15;5.55;;;26.70;99.90;;;;;;5062574;28;20209;-76
2021/09/10 10:43:03;;;;;;;5.95;5.40;;;26.80;99.90;;;;;;5064147;28;20321;-77
2021/09/10 10:45:59;;;;;;;5.72;5.15;;;26.70;99.90;;;;;;5062848;28;20324;-79
2021/09/10 10:48:53;;;;;;;5.82;5.32;;;26.70;99.90;;;;;;5069552;28;20301;-76
2021/09/10 10:51:50;;;;;;;6.55;5.95;;;26.90;99.90;;;;;;5070108;28;20228;-76
2021/09/10 10:54:18;;;;;;;8.15;5.68;;;27.20;99.90;;;;;;5065435;28;20225;-77
2021/09/10 10:56:49;;;;;;;5.68;5.00;;;27.10;99.90;;;;;;5064879;28;20229;-77
2021/09/10 10:59:34;;;;;;;5.88;5.38;;;27.10;99.90;;;;;;5063369;28;20225;-76
2021/09/10 11:02:37;;;;;;;5.50;5.00;;;27.20;99.90;;;;;;5063028;28;20229;-77
2021/09/10 11:05:15;;;;;;;6.28;5.30;;;27.40;99.90;;;;;;5039800;28;20224;-76
2021/09/10 11:07:44;;;;;;;8.50;5.97;;;27.60;99.90;;;;;;5062043;28;20335;-76
2021/09/10 11:10:13;;;;;;;7.15;5.85;;;27.50;99.90;;;;;;5061619;28;20292;-76
2021/09/10 11:12:42;;;;;;;6.05;5.20;;;27.20;99.90;;;;;;5068081;28;20798;-76
2021/09/10 11:15:26;;;;;;;5.60;5.10;;;26.90;99.90;;;;;;5062334;28;20229;-77
2021/09/10 11:18:03;;;;;;;7.22;5.65;;;26.90;99.90;;;;;;5059579;28;20603;-75
2021/09/10 11:20:36;;;;;;;5.97;5.07;;;27.00;99.90;;;;;;5066380;28;20217;-78
2021/09/10 11:23:06;;;;;;;5.75;4.82;;;27.20;99.90;;;;;;5063526;28;21448;-77
2021/09/10 11:25:34;;;;;;;5.88;5.38;;;27.40;99.90;;;;;;5060443;28;20224;-75
2021/09/10 11:28:08;;;;;;;6.28;5.18;;;27.20;99.90;;;;;;5062435;28;20217;-76
2021/09/10 11:30:37;;;;;;;5.82;5.32;;;27.20;99.90;;;;;;5066963;28;20886;-74
2021/09/10 11:33:05;;;;;;;6.03;5.45;;;27.30;99.90;;;;;;5059555;28;20286;-77
2021/09/10 11:35:36;;;;;;;6.07;5.22;;;27.50;99.90;;;;;;5063651;28;20658;-75
2021/09/10 11:38:05;;;;;;;6.68;5.30;;;27.50;99.90;;;;;;5061055;28;20312;-76
2021/09/10 11:40:40;;;;;;;8.32;5.90;;;27.50;99.90;;;;;;5062895;28;20237;-77
2021/09/10 11:43:12;;;;;;;5.75;4.97;;;27.50;99.90;;;;;;5066324;28;20224;-76
2021/09/10 11:45:43;;;;;;;6.47;5.13;;;27.40;99.90;;;;;;5069893;28;20227;-77
2021/09/10 11:48:12;;;;;;;5.03;4.60;;;27.30;99.90;;;;;;5066515;28;20228;-78
2021/09/10 11:50:55;;;;;;;9.75;5.47;;;27.20;99.90;;;;;;5065089;28;20210;-78
2021/09/10 11:53:25;;;;;;;5.97;5.25;;;27.20;99.90;;;;;;5067034;28;20218;-78
2021/09/10 11:56:00;;;;;;;6.07;4.90;;;27.40;99.90;;;;;;5073572;28;21549;-76
2021/09/10 11:58:36;;;;;;;6.25;5.07;;;27.60;99.90;;;;;;5065828;28;20232;-77
2021/09/10 12:01:23;;;;;;;5.45;4.95;;;27.60;99.90;;;;;;5062127;28;20223;-78
2021/09/10 12:03:52;;;;;;;5.25;4.75;;;27.50;99.90;;;;;;5063419;28;20243;-77
2021/09/10 12:06:21;;;;;;;7.90;5.50;;;27.60;99.90;;;;;;5065167;28;20217;-75
2021/09/10 12:09:14;;;;;;;5.60;5.10;;;27.70;99.90;;;;;;5062950;28;20225;-77
2021/09/10 12:11:58;;;;;;;5.57;5.05;;;27.70;99.90;;;;;;5066083;28;20701;-77
2021/09/10 12:14:30;;;;;;;5.85;5.03;;;27.70;99.90;;;;;;5065106;28;20228;-78
2021/09/10 12:17:13;;;;;;;6.95;5.00;;;27.80;99.90;;;;;;5061925;28;20232;-76
2021/09/10 12:20:01;;;;;;;9.75;5.20;;;28.00;99.90;;;;;;5068520;28;20942;-76
2021/09/10 12:22:31;;;;;;;6.53;5.32;;;28.10;99.90;;;;;;5067151;28;20619;-76
2021/09/10 12:25:25;;;;;;;6.93;5.40;;;27.90;99.90;;;;;;5066290;28;20221;-76
2021/09/10 12:27:54;;;;;;;8.40;4.75;;;27.70;99.90;;;;;;5068061;28;20224;-77
2021/09/10 12:30:25;;;;;;;5.82;5.32;;;27.70;99.90;;;;;;5070313;28;20564;-77
2021/09/10 12:32:54;;;;;;;8.02;5.65;;;27.80;99.90;;;;;;5062462;28;20828;-78
2021/09/10 12:35:22;;;;;;;5.38;4.60;;;27.80;99.90;;;;;;5062029;28;20229;-78
2021/09/10 12:37:58;;;;;;;5.70;5.10;;;27.80;99.90;;;;;;5063338;28;20256;-77
2021/09/10 12:40:26;;;;;;;5.43;4.93;;;27.90;99.90;;;;;;5065112;28;20221;-77
2021/09/10 12:42:53;;;;;;;6.55;4.90;;;27.90;99.90;;;;;;5063827;28;20248;-77
2021/09/10 12:45:20;;;;;;;5.50;5.00;;;28.00;99.90;;;;;;5063554;28;20256;-77
2021/09/10 12:47:47;;;;;;;5.60;5.10;;;28.10;99.90;;;;;;5065126;28;20221;-76
2021/09/10 12:50:17;;;;;;;6.38;5.75;;;28.20;99.90;;;;;;5072898;28;20217;-77
2021/09/10 12:52:44;;;;;;;7.53;4.95;;;28.50;99.90;;;;;;5073836;28;20225;-77
2021/09/10 12:55:12;;;;;;;7.97;5.20;;;28.50;99.90;;;;;;5064467;28;20229;-77
2021/09/10 12:57:39;;;;;;;5.40;4.90;;;28.40;99.90;;;;;;5067892;28;20244;-78
2021/09/10 13:00:09;;;;;;;5.13;4.63;;;28.50;99.90;;;;;;5068573;28;20679;-77